Time;durP1;ratioP1;P1;durP2;ratioP2;P2;SDS_P1;SDS_P2;PMS_P1;PMS_P2;Temp;Humidity;BMP_temperature;BMP_pressure;BME280_temperature;BME280_humidity;BME280_pressure;Samples;Min_cycle;Max_cycle;Signal;HPM_P1;HPM_P2
2021/07/13 00:01:36;;;;;;;6.50;3.58;;;;;;;;;;5067086;28;20131;-70
2021/07/13 00:04:05;;;;;;;17.70;3.75;;;;;;;;;;5066487;28;20048;-70
2021/07/13 00:06:47;;;;;;;8.05;3.60;;;;;;;;;;5025683;28;20053;-70
2021/07/13 00:09:15;;;;;;;4.78;3.08;;;;;;;;;;5068671;28;20560;-70
2021/07/13 00:11:43;;;;;;;4.10;3.20;;;;;;;;;;5066964;28;20045;-71
2021/07/13 00:14:13;;;;;;;8.05;3.10;;;;;;;;;;5068139;28;20503;-70
2021/07/13 00:16:41;;;;;;;7.40;3.72;;;;;;;;;;5069145;28;20048;-71
2021/07/13 00:19:10;;;;;;;7.57;3.22;;;;;;;;;;5067197;28;20496;-71
2021/07/13 00:21:38;;;;;;;7.38;3.10;;;;;;;;;;5070769;28;20084;-70
2021/07/13 00:24:07;;;;;;;4.85;3.05;;;;;;;;;;5067807;28;20497;-72
2021/07/13 00:26:35;;;;;;;4.22;2.70;;;;;;;;;;5068853;28;20045;-70
2021/07/13 00:29:05;;;;;;;5.72;3.28;;;;;;;;;;5072005;28;20388;-71
2021/07/13 00:31:35;;;;;;;6.47;2.95;;;;;;;;;;5066807;28;20045;-73
2021/07/13 00:34:03;;;;;;;4.85;3.30;;;;;;;;;;5060434;28;20044;-70
2021/07/13 00:36:32;;;;;;;9.07;3.58;;;;;;;;;;5068048;28;20054;-70
2021/07/13 00:39:00;;;;;;;7.35;3.22;;;;;;;;;;5070758;28;20187;-74
2021/07/13 00:41:28;;;;;;;7.00;3.20;;;;;;;;;;5069290;28;20084;-72
2021/07/13 00:43:56;;;;;;;5.63;3.75;;;;;;;;;;5067737;28;20407;-70
2021/07/13 00:46:25;;;;;;;4.95;3.08;;;;;;;;;;5069320;28;20048;-72
2021/07/13 00:48:55;;;;;;;8.02;3.90;;;;;;;;;;5070435;28;20044;-71
2021/07/13 00:51:23;;;;;;;5.75;3.35;;;;;;;;;;5070531;28;20051;-71
2021/07/13 00:53:51;;;;;;;8.77;3.50;;;;;;;;;;5069474;28;20048;-71
2021/07/13 00:56:20;;;;;;;4.95;3.25;;;;;;;;;;5068178;28;20248;-71
2021/07/13 00:58:48;;;;;;;5.30;3.22;;;;;;;;;;5071009;28;20068;-72
2021/07/13 01:01:17;;;;;;;5.55;3.50;;;;;;;;;;5073828;22;20063;-58
2021/07/13 01:03:46;;;;;;;4.75;3.58;;;;;;;;;;5028373;28;20052;-58
2021/07/13 01:06:17;;;;;;;4.00;3.10;;;;;;;;;;5030030;28;20051;-57
2021/07/13 01:08:51;;;;;;;5.70;3.45;;;;;;;;;;5030765;28;20132;-57
2021/07/13 01:11:24;;;;;;;5.75;3.30;;;;;;;;;;5026913;28;20037;-57
2021/07/13 01:13:57;;;;;;;5.03;2.97;;;;;;;;;;5024771;28;20127;-58
2021/07/13 01:16:27;;;;;;;8.27;3.20;;;;;;;;;;5027578;28;20038;-58
2021/07/13 01:18:57;;;;;;;6.20;3.58;;;;;;;;;;5030597;28;20500;-58
2021/07/13 01:21:39;;;;;;;7.75;3.13;;;;;;;;;;5027373;28;20077;-58
2021/07/13 01:24:14;;;;;;;5.20;3.20;;;;;;;;;;5025925;28;20045;-58
2021/07/13 01:26:57;;;;;;;6.70;3.22;;;;;;;;;;5040467;28;20159;-58
2021/07/13 01:29:27;;;;;;;6.57;3.50;;;;;;;;;;5030136;28;20075;-58
2021/07/13 01:31:57;;;;;;;5.68;3.28;;;;;;;;;;5022061;28;20041;-58
2021/07/13 01:34:28;;;;;;;5.38;3.40;;;;;;;;;;5030910;28;20053;-58
2021/07/13 01:36:57;;;;;;;5.75;3.20;;;;;;;;;;5030338;28;20045;-58
2021/07/13 01:39:26;;;;;;;5.68;3.55;;;;;;;;;;5031305;28;20168;-58
2021/07/13 01:41:56;;;;;;;7.38;3.65;;;;;;;;;;5027354;28;20409;-58
2021/07/13 01:44:27;;;;;;;6.57;3.97;;;;;;;;;;5031816;28;20490;-58
2021/07/13 01:46:55;;;;;;;8.40;3.67;;;;;;;;;;5029971;28;20460;-58
2021/07/13 01:49:24;;;;;;;8.43;3.60;;;;;;;;;;5030055;28;20053;-58
2021/07/13 01:51:54;;;;;;;6.00;4.00;;;;;;;;;;5031020;28;20055;-59
2021/07/13 01:54:24;;;;;;;7.22;3.50;;;;;;;;;;5030357;28;20226;-59
2021/07/13 01:56:53;;;;;;;6.30;3.88;;;;;;;;;;5030343;28;20404;-59
2021/07/13 01:59:21;;;;;;;7.15;3.42;;;;;;;;;;5030218;28;20045;-58
2021/07/13 02:01:51;;;;;;;7.65;3.90;;;;;;;;;;5043786;28;20095;-58
2021/07/13 02:04:21;;;;;;;6.40;4.18;;;;;;;;;;5030648;28;20049;-58
2021/07/13 02:06:49;;;;;;;9.07;4.10;;;;;;;;;;5029323;28;20405;-58
2021/07/13 02:09:17;;;;;;;7.28;3.78;;;;;;;;;;5031096;28;20140;-58
2021/07/13 02:11:46;;;;;;;4.80;3.40;;;;;;;;;;5030882;28;20574;-58
2021/07/13 02:14:15;;;;;;;5.05;3.83;;;;;;;;;;5030465;28;20042;-59
2021/07/13 02:16:44;;;;;;;7.00;3.50;;;;;;;;;;5030114;28;20057;-59
2021/07/13 02:19:13;;;;;;;5.53;3.63;;;;;;;;;;5030183;28;20070;-58
2021/07/13 02:21:42;;;;;;;5.70;3.10;;;;;;;;;;5030774;28;20159;-58
2021/07/13 02:24:10;;;;;;;6.70;3.63;;;;;;;;;;5030204;28;20128;-58
2021/07/13 02:26:43;;;;;;;6.18;3.83;;;;;;;;;;5029659;28;20600;-59
2021/07/13 02:29:13;;;;;;;10.38;3.50;;;;;;;;;;5030360;28;20081;-58
2021/07/13 02:31:45;;;;;;;5.35;3.53;;;;;;;;;;5030088;28;20573;-58
2021/07/13 02:34:17;;;;;;;5.55;3.63;;;;;;;;;;5030965;28;20053;-59
2021/07/13 02:36:46;;;;;;;5.22;3.63;;;;;;;;;;5028406;28;20049;-58
2021/07/13 02:39:15;;;;;;;5.50;3.78;;;;;;;;;;5030034;28;20060;-59
2021/07/13 02:41:45;;;;;;;8.60;3.40;;;;;;;;;;5030305;28;20523;-58
2021/07/13 02:44:15;;;;;;;4.72;3.22;;;;;;;;;;5029770;28;20323;-58
2021/07/13 02:46:44;;;;;;;5.75;3.67;;;;;;;;;;5029820;28;20140;-58
2021/07/13 02:49:15;;;;;;;7.00;3.25;;;;;;;;;;5029755;28;20053;-58
2021/07/13 02:51:45;;;;;;;5.57;3.47;;;;;;;;;;5031042;28;20052;-58
2021/07/13 02:54:15;;;;;;;6.22;3.70;;;;;;;;;;5019583;28;20416;-58
2021/07/13 02:56:43;;;;;;;4.15;3.10;;;;;;;;;;5030641;28;20400;-58
2021/07/13 02:59:12;;;;;;;7.55;3.10;;;;;;;;;;5029345;28;20489;-58
2021/07/13 03:01:41;;;;;;;6.35;3.05;;;;;;;;;;5029654;28;20156;-58
2021/07/13 03:04:09;;;;;;;4.75;3.30;;;;;;;;;;5029554;28;20513;-58
2021/07/13 03:06:38;;;;;;;8.65;4.50;;;;;;;;;;5030254;28;20132;-58
2021/07/13 03:09:07;;;;;;;8.57;3.50;;;;;;;;;;5029757;28;20053;-58
2021/07/13 03:11:37;;;;;;;6.18;3.38;;;;;;;;;;5030358;28;20060;-58
2021/07/13 03:14:07;;;;;;;6.30;3.33;;;;;;;;;;5029651;28;20077;-59
2021/07/13 03:16:36;;;;;;;7.20;3.65;;;;;;;;;;5023186;28;20132;-59
2021/07/13 03:19:09;;;;;;;7.57;3.30;;;;;;;;;;5026653;28;20409;-59
2021/07/13 03:21:39;;;;;;;6.28;3.80;;;;;;;;;;5010253;28;20049;-58
2021/07/13 03:24:10;;;;;;;6.95;3.92;;;;;;;;;;5024556;28;20060;-58
2021/07/13 03:26:40;;;;;;;7.80;3.90;;;;;;;;;;5027750;28;20590;-58
2021/07/13 03:29:09;;;;;;;4.22;3.53;;;;;;;;;;5025544;28;20567;-58
2021/07/13 03:31:38;;;;;;;6.97;3.78;;;;;;;;;;5025614;28;20084;-59
2021/07/13 03:34:06;;;;;;;5.30;3.58;;;;;;;;;;5025913;28;20049;-59
2021/07/13 03:36:36;;;;;;;9.90;3.75;;;;;;;;;;5025883;28;20413;-58
2021/07/13 03:39:05;;;;;;;3.50;3.00;;;;;;;;;;5037620;28;20057;-58
2021/07/13 03:41:37;;;;;;;4.90;3.53;;;;;;;;;;5043488;28;20106;-58
2021/07/13 03:44:06;;;;;;;6.63;3.38;;;;;;;;;;5030349;28;20064;-59
2021/07/13 03:46:35;;;;;;;5.35;3.72;;;;;;;;;;5025399;28;20120;-58
2021/07/13 03:49:18;;;;;;;6.53;3.30;;;;;;;;;;4407780;28;10001241;-58
2021/07/13 03:51:47;;;;;;;7.03;3.65;;;;;;;;;;1383259;28;10002044;-58
2021/07/13 03:54:20;;;;;;;7.18;3.22;;;;;;;;;;5032804;28;20485;-58
2021/07/13 03:56:50;;;;;;;5.50;3.40;;;;;;;;;;5035395;28;20164;-58
2021/07/13 03:59:19;;;;;;;5.38;3.20;;;;;;;;;;5033840;28;20042;-58
2021/07/13 04:01:47;;;;;;;7.22;3.40;;;;;;;;;;5033023;28;20060;-59
2021/07/13 04:04:16;;;;;;;6.50;3.63;;;;;;;;;;5035346;28;20067;-58
2021/07/13 04:06:45;;;;;;;7.25;3.50;;;;;;;;;;5033331;28;20074;-58
2021/07/13 04:09:13;;;;;;;5.70;3.65;;;;;;;;;;5032726;28;20081;-58
2021/07/13 04:11:42;;;;;;;5.63;3.60;;;;;;;;;;5031984;28;20096;-58
2021/07/13 04:14:12;;;;;;;8.85;3.53;;;;;;;;;;5030637;28;20057;-59
2021/07/13 04:16:40;;;;;;;4.00;3.30;;;;;;;;;;5033970;28;20542;-59
2021/07/13 04:19:09;;;;;;;8.73;3.80;;;;;;;;;;5027793;28;20077;-58
2021/07/13 04:21:37;;;;;;;7.07;4.00;;;;;;;;;;5033527;28;20095;-58
2021/07/13 04:24:05;;;;;;;5.05;3.28;;;;;;;;;;5033097;28;20176;-58
2021/07/13 04:26:34;;;;;;;5.95;3.85;;;;;;;;;;5033461;28;20188;-58
2021/07/13 04:29:02;;;;;;;12.45;4.15;;;;;;;;;;5033297;28;20045;-59
2021/07/13 04:31:31;;;;;;;7.53;3.47;;;;;;;;;;5033209;28;20088;-58
2021/07/13 04:34:06;;;;;;;8.13;3.65;;;;;;;;;;5034539;28;20068;-58
2021/07/13 04:36:35;;;;;;;8.18;3.80;;;;;;;;;;5033278;28;20041;-58
2021/07/13 04:39:03;;;;;;;7.05;4.10;;;;;;;;;;5033452;28;20060;-58
2021/07/13 04:41:32;;;;;;;5.25;3.40;;;;;;;;;;5032497;28;20051;-58
2021/07/13 04:44:00;;;;;;;10.25;3.83;;;;;;;;;;5032033;28;20059;-58
2021/07/13 04:46:29;;;;;;;18.45;5.25;;;;;;;;;;5032959;28;20109;-57
2021/07/13 04:48:59;;;;;;;9.32;4.00;;;;;;;;;;5033203;28;20109;-57
2021/07/13 04:51:27;;;;;;;8.70;4.53;;;;;;;;;;5034067;28;20156;-57
2021/07/13 04:53:55;;;;;;;6.85;4.22;;;;;;;;;;5032745;28;20084;-59
2021/07/13 04:56:23;;;;;;;6.30;4.10;;;;;;;;;;5033173;28;20128;-58
2021/07/13 04:58:52;;;;;;;9.00;4.47;;;;;;;;;;5035129;28;20124;-58
2021/07/13 05:01:20;;;;;;;8.13;4.53;;;;;;;;;;5036061;28;20145;-57
2021/07/13 05:03:48;;;;;;;10.57;4.53;;;;;;;;;;5035640;28;20148;-58
2021/07/13 05:06:18;;;;;;;5.47;4.10;;;;;;;;;;5034111;28;20056;-58
2021/07/13 05:08:47;;;;;;;6.95;4.63;;;;;;;;;;5034844;28;20049;-58
2021/07/13 05:11:15;;;;;;;7.88;4.50;;;;;;;;;;5035474;28;20084;-58
2021/07/13 05:13:43;;;;;;;13.70;4.78;;;;;;;;;;5023439;28;20113;-57
2021/07/13 05:16:12;;;;;;;7.63;4.05;;;;;;;;;;5032781;28;20104;-57
2021/07/13 05:18:40;;;;;;;9.38;4.68;;;;;;;;;;5028417;28;20042;-58
2021/07/13 05:21:09;;;;;;;6.78;4.10;;;;;;;;;;5021984;28;20092;-57
2021/07/13 05:23:38;;;;;;;9.65;4.30;;;;;;;;;;5033948;28;20041;-57
2021/07/13 05:26:07;;;;;;;7.70;4.80;;;;;;;;;;5029683;28;20050;-58
2021/07/13 05:28:35;;;;;;;10.20;4.25;;;;;;;;;;5031261;28;20168;-58
2021/07/13 05:31:03;;;;;;;12.30;4.60;;;;;;;;;;5031562;28;20144;-58
2021/07/13 05:33:32;;;;;;;9.23;4.03;;;;;;;;;;5031462;28;20061;-57
2021/07/13 05:36:03;;;;;;;10.65;4.47;;;;;;;;;;5028026;28;20056;-58
2021/07/13 05:38:31;;;;;;;12.07;4.28;;;;;;;;;;5027642;28;20053;-58
2021/07/13 05:41:01;;;;;;;7.72;4.38;;;;;;;;;;5028948;28;20057;-58
2021/07/13 05:43:29;;;;;;;9.75;4.68;;;;;;;;;;5027430;28;20173;-57
2021/07/13 05:45:57;;;;;;;8.70;4.75;;;;;;;;;;5027519;28;20057;-57
2021/07/13 05:48:25;;;;;;;7.05;3.85;;;;;;;;;;5028945;28;20134;-58
2021/07/13 05:50:54;;;;;;;7.32;3.90;;;;;;;;;;5028397;28;20446;-58
2021/07/13 05:53:22;;;;;;;11.63;5.00;;;;;;;;;;5028828;28;20058;-57
2021/07/13 05:55:51;;;;;;;7.10;4.07;;;;;;;;;;5026098;28;20056;-58
2021/07/13 05:58:22;;;;;;;8.27;4.75;;;;;;;;;;5028143;28;20085;-57
2021/07/13 06:00:50;;;;;;;10.40;4.35;;;;;;;;;;5028716;28;20163;-58
2021/07/13 06:03:19;;;;;;;5.35;4.40;;;;;;;;;;5028635;28;20053;-57
2021/07/13 06:05:47;;;;;;;5.68;4.20;;;;;;;;;;5027741;28;20115;-58
2021/07/13 06:08:15;;;;;;;7.20;5.13;;;;;;;;;;5026487;28;20076;-58
2021/07/13 06:10:44;;;;;;;7.90;4.45;;;;;;;;;;5014396;28;20142;-58
2021/07/13 06:13:12;;;;;;;11.00;4.15;;;;;;;;;;5027124;28;20060;-58
2021/07/13 06:15:42;;;;;;;8.68;3.95;;;;;;;;;;5028070;28;20591;-60
2021/07/13 06:18:10;;;;;;;8.65;4.32;;;;;;;;;;5025972;28;20060;-58
2021/07/13 06:20:38;;;;;;;6.53;3.60;;;;;;;;;;5027521;28;20049;-58
2021/07/13 06:23:10;;;;;;;7.35;4.30;;;;;;;;;;5027576;28;20552;-58
2021/07/13 06:25:39;;;;;;;5.75;4.25;;;;;;;;;;5025542;28;20124;-57
2021/07/13 06:28:07;;;;;;;13.18;4.63;;;;;;;;;;5027624;28;20164;-58
2021/07/13 06:30:36;;;;;;;6.28;4.10;;;;;;;;;;5026818;28;20144;-58
2021/07/13 06:33:06;;;;;;;9.40;4.50;;;;;;;;;;5026578;28;20057;-59
2021/07/13 06:35:34;;;;;;;10.13;4.60;;;;;;;;;;5015139;28;20072;-58
2021/07/13 06:38:03;;;;;;;7.43;4.55;;;;;;;;;;5026991;28;20096;-59
2021/07/13 06:40:31;;;;;;;9.60;4.88;;;;;;;;;;5027566;28;20481;-59
2021/07/13 06:42:59;;;;;;;8.70;4.32;;;;;;;;;;5025529;28;20140;-59
2021/07/13 06:45:28;;;;;;;6.90;4.05;;;;;;;;;;5015591;28;20621;-58
2021/07/13 06:47:56;;;;;;;8.75;4.78;;;;;;;;;;5025088;28;20080;-59
2021/07/13 06:50:26;;;;;;;9.27;4.70;;;;;;;;;;5033785;28;20591;-59
2021/07/13 06:52:55;;;;;;;11.27;4.78;;;;;;;;;;5036051;28;20057;-59
2021/07/13 06:55:23;;;;;;;6.55;4.50;;;;;;;;;;5032495;28;20053;-58
2021/07/13 06:57:51;;;;;;;5.82;3.95;;;;;;;;;;5021529;28;20155;-58
2021/07/13 07:00:20;;;;;;;10.00;4.90;;;;;;;;;;5026397;28;20079;-58
2021/07/13 07:02:48;;;;;;;5.82;3.67;;;;;;;;;;5024920;28;20077;-59
2021/07/13 07:05:17;;;;;;;7.78;4.22;;;;;;;;;;5026031;28;20060;-58
2021/07/13 07:07:48;;;;;;;6.38;4.63;;;;;;;;;;5027915;28;20065;-59
2021/07/13 07:10:17;;;;;;;6.35;4.95;;;;;;;;;;5023251;28;20125;-59
2021/07/13 07:12:46;;;;;;;6.82;4.60;;;;;;;;;;5024556;28;20137;-59
2021/07/13 07:15:14;;;;;;;8.95;4.88;;;;;;;;;;5025287;28;20404;-59
2021/07/13 07:17:44;;;;;;;6.45;4.78;;;;;;;;;;5017556;28;20124;-60
2021/07/13 07:20:13;;;;;;;6.05;4.60;;;;;;;;;;5016515;28;20076;-58
2021/07/13 07:22:41;;;;;;;6.60;4.53;;;;;;;;;;5031116;28;20041;-59
2021/07/13 07:25:11;;;;;;;15.95;5.60;;;;;;;;;;5031619;28;20041;-58
2021/07/13 07:27:40;;;;;;;8.25;4.43;;;;;;;;;;5031840;28;20077;-59
2021/07/13 07:30:10;;;;;;;6.63;4.40;;;;;;;;;;5031406;28;20059;-58
2021/07/13 07:32:39;;;;;;;10.10;4.70;;;;;;;;;;5032375;28;20061;-58
2021/07/13 07:35:09;;;;;;;6.57;4.63;;;;;;;;;;5029738;28;20148;-58
2021/07/13 07:37:38;;;;;;;7.63;4.43;;;;;;;;;;5032359;28;20103;-58
2021/07/13 07:40:08;;;;;;;10.65;5.18;;;;;;;;;;5031314;28;20428;-58
2021/07/13 07:42:38;;;;;;;7.25;3.85;;;;;;;;;;5031118;28;20489;-58
2021/07/13 07:45:07;;;;;;;6.60;4.88;;;;;;;;;;5029612;28;20119;-59
2021/07/13 07:47:36;;;;;;;5.32;4.55;;;;;;;;;;5030504;28;20114;-58
2021/07/13 07:50:04;;;;;;;6.18;4.78;;;;;;;;;;5030882;28;20091;-58
2021/07/13 07:52:33;;;;;;;11.80;5.13;;;;;;;;;;5030863;28;20143;-59
2021/07/13 07:55:02;;;;;;;9.68;4.43;;;;;;;;;;5029389;28;20164;-58
2021/07/13 07:57:30;;;;;;;9.15;5.60;;;;;;;;;;5032931;28;20087;-59
2021/07/13 08:00:00;;;;;;;8.30;4.78;;;;;;;;;;5023231;28;20501;-58
2021/07/13 08:02:29;;;;;;;8.02;5.07;;;;;;;;;;5030078;28;20067;-59
2021/07/13 08:04:57;;;;;;;10.75;4.90;;;;;;;;;;5026736;28;20053;-59
2021/07/13 08:07:26;;;;;;;6.93;5.13;;;;;;;;;;5029766;28;20050;-59
2021/07/13 08:09:55;;;;;;;9.02;5.93;;;;;;;;;;5026932;28;20080;-59
2021/07/13 08:12:24;;;;;;;10.55;5.70;;;;;;;;;;5028323;28;20073;-58
2021/07/13 08:14:52;;;;;;;9.20;6.38;;;;;;;;;;5029732;28;20544;-59
2021/07/13 08:17:22;;;;;;;8.32;6.75;;;;;;;;;;5029959;28;20151;-59
2021/07/13 08:19:50;;;;;;;13.95;6.43;;;;;;;;;;5029283;28;20057;-58
2021/07/13 08:22:19;;;;;;;11.98;7.00;;;;;;;;;;5030579;28;21990;-58
2021/07/13 08:24:47;;;;;;;10.82;6.65;;;;;;;;;;5030084;28;20046;-58
2021/07/13 08:27:17;;;;;;;10.88;6.85;;;;;;;;;;5029996;28;20612;-58
2021/07/13 08:29:45;;;;;;;7.93;7.03;;;;;;;;;;5028432;28;20059;-59
2021/07/13 08:32:14;;;;;;;11.45;7.55;;;;;;;;;;5040648;28;20180;-58
2021/07/13 08:34:43;;;;;;;8.23;6.82;;;;;;;;;;5027933;28;20404;-58
2021/07/13 08:37:13;;;;;;;11.75;7.32;;;;;;;;;;5029463;28;20528;-58
2021/07/13 08:39:41;;;;;;;12.38;8.15;;;;;;;;;;5028342;28;20045;-58
2021/07/13 08:42:11;;;;;;;10.55;7.28;;;;;;;;;;5028530;28;20123;-58
2021/07/13 08:44:39;;;;;;;10.73;7.45;;;;;;;;;;5027941;28;20563;-59
2021/07/13 08:47:08;;;;;;;10.07;7.78;;;;;;;;;;5029407;28;20038;-58
2021/07/13 08:49:36;;;;;;;12.98;8.35;;;;;;;;;;5029072;28;20405;-59
2021/07/13 08:52:06;;;;;;;9.98;8.52;;;;;;;;;;5026534;28;20509;-59
2021/07/13 08:54:36;;;;;;;13.48;8.45;;;;;;;;;;5026858;28;20511;-58
2021/07/13 08:57:04;;;;;;;11.40;9.13;;;;;;;;;;5029297;28;20053;-58
2021/07/13 08:59:33;;;;;;;14.30;11.02;;;;;;;;;;5029127;28;20049;-59
2021/07/13 09:02:02;;;;;;;12.48;10.25;;;;;;;;;;5019836;28;20046;-59
2021/07/13 09:04:34;;;;;;;12.07;10.77;;;;;;;;;;5023055;28;20046;-58
2021/07/13 09:07:07;;;;;;;11.27;10.07;;;;;;;;;;5019630;28;20096;-59
2021/07/13 09:09:38;;;;;;;14.07;10.90;;;;;;;;;;5018819;28;20071;-58
2021/07/13 09:12:11;;;;;;;20.10;10.23;;;;;;;;;;5021124;28;20096;-59
2021/07/13 09:14:58;;;;;;;10.25;8.77;;;;;;;;;;5026955;28;20045;-59
2021/07/13 09:17:28;;;;;;;12.57;8.75;;;;;;;;;;5032163;28;20077;-60
2021/07/13 09:20:01;;;;;;;9.02;7.80;;;;;;;;;;5031917;28;20049;-59
2021/07/13 09:22:35;;;;;;;10.50;7.47;;;;;;;;;;5033110;28;20133;-60
2021/07/13 09:25:22;;;;;;;13.00;7.50;;;;;;;;;;5022474;28;20072;-60
2021/07/13 09:28:05;;;;;;;10.70;7.20;;;;;;;;;;5029617;28;20131;-59
2021/07/13 09:30:34;;;;;;;7.68;6.88;;;;;;;;;;5027407;28;20041;-59
2021/07/13 09:33:12;;;;;;;11.15;6.93;;;;;;;;;;5030257;28;20057;-59
2021/07/13 09:36:00;;;;;;;9.50;6.78;;;;;;;;;;5038243;28;20051;-59
2021/07/13 09:38:29;;;;;;;9.70;7.15;;;;;;;;;;5032194;28;20100;-59
2021/07/13 09:41:04;;;;;;;7.93;6.95;;;;;;;;;;5036186;28;20465;-59
2021/07/13 09:43:43;;;;;;;9.88;7.20;;;;;;;;;;5030253;28;20124;-59
2021/07/13 09:46:28;;;;;;;12.13;6.95;;;;;;;;;;5030530;28;20053;-59
2021/07/13 09:49:10;;;;;;;8.52;6.72;;;;;;;;;;5032478;28;20058;-59
2021/07/13 09:51:39;;;;;;;14.07;6.95;;;;;;;;;;5038772;28;20060;-59
2021/07/13 09:54:36;;;;;;;9.38;7.55;;;;;;;;;;5030666;28;20246;-59
2021/07/13 09:57:14;;;;;;;10.93;7.38;;;;;;;;;;5031965;28;20053;-59
2021/07/13 09:59:43;;;;;;;10.07;7.68;;;;;;;;;;5031144;28;20084;-59
2021/07/13 10:02:12;;;;;;;9.75;7.50;;;;;;;;;;5030473;28;20084;-59
2021/07/13 10:04:42;;;;;;;14.18;7.65;;;;;;;;;;5012309;28;20064;-59
2021/07/13 10:07:12;;;;;;;11.45;7.03;;;;;;;;;;5026056;28;20049;-59
2021/07/13 10:09:43;;;;;;;14.75;7.70;;;;;;;;;;5031261;28;20107;-59
2021/07/13 10:12:15;;;;;;;12.52;8.70;;;;;;;;;;5031095;28;20137;-59
2021/07/13 10:14:44;;;;;;;12.45;8.88;;;;;;;;;;5030704;28;20489;-59
2021/07/13 10:17:13;;;;;;;10.70;6.93;;;;;;;;;;5030318;28;20076;-59
2021/07/13 10:19:46;;;;;;;5.88;3.58;;;;;;;;;;5029614;28;20152;-59
2021/07/13 10:22:15;;;;;;;3.47;2.60;;;;;;;;;;5027881;28;20469;-59
2021/07/13 10:24:45;;;;;;;3.40;1.58;;;;;;;;;;5030665;28;20045;-59
2021/07/13 10:27:16;;;;;;;3.63;1.02;;;;;;;;;;5030960;28;20051;-59
2021/07/13 10:29:45;;;;;;;1.00;0.70;;;;;;;;;;5023882;28;20103;-60
2021/07/13 10:32:36;;;;;;;1.48;0.80;;;;;;;;;;5031279;28;20058;-58
2021/07/13 10:35:07;;;;;;;1.92;0.60;;;;;;;;;;5032023;28;20057;-59
2021/07/13 10:37:36;;;;;;;0.88;0.50;;;;;;;;;;5030557;28;20096;-59
2021/07/13 10:40:06;;;;;;;3.65;0.60;;;;;;;;;;5028421;28;20119;-59
2021/07/13 10:42:46;;;;;;;3.25;0.60;;;;;;;;;;5027646;28;20052;-59
2021/07/13 10:45:15;;;;;;;1.48;0.43;;;;;;;;;;5011030;28;20131;-59
2021/07/13 10:48:00;;;;;;;3.42;0.50;;;;;;;;;;5032055;28;20552;-58
2021/07/13 10:50:39;;;;;;;6.15;1.27;;;;;;;;;;5027306;28;20114;-60
2021/07/13 10:53:09;;;;;;;1.13;0.50;;;;;;;;;;5008692;28;20481;-58
2021/07/13 10:55:48;;;;;;;2.15;0.63;;;;;;;;;;5014089;28;20045;-59
2021/07/13 10:58:29;;;;;;;2.55;0.70;;;;;;;;;;5024305;28;20049;-60
2021/07/13 11:01:02;;;;;;;2.45;0.50;;;;;;;;;;5025812;28;20057;-59
2021/07/13 11:03:49;;;;;;;0.30;0.30;;;;;;;;;;5027735;28;20785;-59
2021/07/13 11:06:18;;;;;;;0.38;0.35;;;;;;;;;;5028227;28;20514;-59
2021/07/13 11:08:53;;;;;;;2.05;0.50;;;;;;;;;;5014062;28;20204;-59
2021/07/13 11:11:39;;;;;;;1.27;0.55;;;;;;;;;;5020935;28;20088;-60
2021/07/13 11:14:10;;;;;;;2.28;0.85;;;;;;;;;;5021003;28;20054;-59
2021/07/13 11:16:40;;;;;;;0.88;0.50;;;;;;;;;;5021847;28;20061;-60
2021/07/13 11:19:12;;;;;;;0.93;0.47;;;;;;;;;;5021472;28;20053;-60
2021/07/13 11:21:41;;;;;;;2.80;0.47;;;;;;;;;;5023876;28;20429;-60
2021/07/13 11:24:13;;;;;;;0.88;0.50;;;;;;;;;;5024767;28;20080;-59
2021/07/13 11:26:43;;;;;;;0.93;0.43;;;;;;;;;;5023951;28;20494;-59
2021/07/13 11:29:18;;;;;;;2.88;0.60;;;;;;;;;;5026410;28;20053;-60
2021/07/13 11:31:48;;;;;;;2.30;0.70;;;;;;;;;;5023086;28;20549;-58
2021/07/13 11:34:18;;;;;;;2.65;0.50;;;;;;;;;;5014419;28;20060;-59
2021/07/13 11:36:47;;;;;;;2.40;0.40;;;;;;;;;;5016138;28;20049;-59
2021/07/13 11:39:17;;;;;;;0.93;0.40;;;;;;;;;;5031151;28;20076;-58
2021/07/13 11:41:46;;;;;;;0.80;0.40;;;;;;;;;;5028249;28;20110;-59
2021/07/13 11:44:16;;;;;;;2.05;0.47;;;;;;;;;;5025902;28;20119;-59
2021/07/13 11:46:46;;;;;;;3.05;0.57;;;;;;;;;;5028449;28;20111;-59
2021/07/13 11:49:17;;;;;;;8.18;0.68;;;;;;;;;;5026990;28;20049;-59
2021/07/13 11:51:54;;;;;;;7.60;0.70;;;;;;;;;;5028102;28;20107;-60
2021/07/13 11:54:23;;;;;;;6.88;0.80;;;;;;;;;;5023787;28;20045;-59
2021/07/13 11:56:52;;;;;;;2.90;0.73;;;;;;;;;;5029309;28;20096;-60
2021/07/13 11:59:24;;;;;;;0.70;0.65;;;;;;;;;;5026786;28;20053;-59
2021/07/13 12:01:55;;;;;;;1.80;0.47;;;;;;;;;;5027083;28;20053;-59
2021/07/13 12:04:24;;;;;;;0.85;0.55;;;;;;;;;;5026429;28;20346;-59
2021/07/13 12:06:53;;;;;;;2.40;0.50;;;;;;;;;;5028456;28;20056;-59
2021/07/13 12:09:26;;;;;;;1.17;0.50;;;;;;;;;;5034198;28;20054;-60
2021/07/13 12:11:56;;;;;;;2.72;0.38;;;;;;;;;;5035101;28;20488;-59
2021/07/13 12:14:28;;;;;;;0.30;0.30;;;;;;;;;;5034536;28;20073;-59
2021/07/13 12:16:58;;;;;;;2.95;0.32;;;;;;;;;;5020910;28;20397;-59
2021/07/13 12:19:28;;;;;;;1.30;0.50;;;;;;;;;;5030511;28;20042;-59
2021/07/13 12:21:57;;;;;;;0.98;0.40;;;;;;;;;;5031089;28;20489;-59
2021/07/13 12:24:31;;;;;;;0.80;0.32;;;;;;;;;;5027685;28;20128;-59
2021/07/13 12:27:00;;;;;;;0.90;0.50;;;;;;;;;;5027207;28;20080;-59
2021/07/13 12:29:37;;;;;;;0.20;0.10;;;;;;;;;;5032340;28;20112;-59
2021/07/13 12:32:06;;;;;;;1.38;0.40;;;;;;;;;;5019211;28;20489;-59
2021/07/13 12:34:39;;;;;;;3.80;0.50;;;;;;;;;;5029880;28;20061;-59
2021/07/13 12:37:09;;;;;;;0.93;0.40;;;;;;;;;;5031038;28;20084;-58
2021/07/13 12:39:38;;;;;;;0.47;0.32;;;;;;;;;;5030497;28;20041;-59
2021/07/13 12:42:09;;;;;;;0.77;0.57;;;;;;;;;;5029271;28;20400;-59
2021/07/13 12:44:43;;;;;;;0.82;0.50;;;;;;;;;;5030001;28;20060;-59
2021/07/13 12:47:39;;;;;;;5.43;0.67;;;;;;;;;;5041123;28;20049;-59
2021/07/13 12:50:15;;;;;;;3.97;0.70;;;;;;;;;;4952752;28;20376;-59
2021/07/13 12:52:45;;;;;;;2.40;0.55;;;;;;;;;;5026112;28;20485;-59
2021/07/13 12:55:14;;;;;;;4.50;0.70;;;;;;;;;;5028816;28;20049;-59
2021/07/13 12:57:44;;;;;;;2.28;0.50;;;;;;;;;;5029394;28;20053;-59
2021/07/13 13:00:16;;;;;;;1.23;0.60;;;;;;;;;;5028847;28;20053;-59
2021/07/13 13:02:46;;;;;;;1.88;0.50;;;;;;;;;;5021774;28;20057;-60
2021/07/13 13:05:35;;;;;;;1.67;0.45;;;;;;;;;;5026954;28;20050;-59
2021/07/13 13:08:05;;;;;;;1.02;0.60;;;;;;;;;;5023524;28;20049;-59
2021/07/13 13:10:34;;;;;;;2.47;0.40;;;;;;;;;;5030321;28;20678;-59
2021/07/13 13:13:02;;;;;;;3.35;0.45;;;;;;;;;;5033899;28;20049;-58
2021/07/13 13:15:32;;;;;;;1.95;0.70;;;;;;;;;;5029619;28;20050;-59
2021/07/13 13:18:01;;;;;;;2.17;0.90;;;;;;;;;;5012960;28;20049;-59
2021/07/13 13:20:30;;;;;;;2.17;0.40;;;;;;;;;;5026835;28;20576;-59
2021/07/13 13:23:06;;;;;;;1.00;0.60;;;;;;;;;;5027968;28;20084;-59
2021/07/13 13:25:35;;;;;;;4.60;0.70;;;;;;;;;;5020522;28;20049;-58
2021/07/13 13:28:04;;;;;;;4.57;0.60;;;;;;;;;;5028445;28;20071;-59
2021/07/13 13:30:34;;;;;;;2.67;0.70;;;;;;;;;;5027839;28;20051;-59
2021/07/13 13:33:02;;;;;;;1.58;0.82;;;;;;;;;;5019675;28;20456;-59
2021/07/13 13:35:37;;;;;;;1.13;0.70;;;;;;;;;;5029243;28;20079;-59
2021/07/13 13:38:11;;;;;;;2.53;0.52;;;;;;;;;;5029737;28;20046;-60
2021/07/13 13:40:41;;;;;;;5.60;0.70;;;;;;;;;;5028108;28;20555;-59
2021/07/13 13:43:09;;;;;;;1.70;0.80;;;;;;;;;;5029178;28;20055;-59
2021/07/13 13:45:39;;;;;;;2.22;0.80;;;;;;;;;;5020187;28;20138;-59
2021/07/13 13:48:08;;;;;;;3.80;0.60;;;;;;;;;;5028872;28;20045;-59
2021/07/13 13:50:37;;;;;;;5.32;0.88;;;;;;;;;;5027426;28;20045;-60
2021/07/13 13:53:25;;;;;;;18.20;2.92;;;;;;;;;;5029246;28;20049;-59
2021/07/13 13:56:05;;;;;;;10.90;1.77;;;;;;;;;;5027022;28;20084;-59
2021/07/13 13:58:33;;;;;;;9.10;1.65;;;;;;;;;;5028180;28;20069;-59
2021/07/13 14:01:04;;;;;;;10.02;1.98;;;;;;;;;;5027842;28;20671;-59
2021/07/13 14:03:32;;;;;;;4.88;1.20;;;;;;;;;;5024989;28;20429;-59
2021/07/13 14:06:01;;;;;;;7.28;1.38;;;;;;;;;;5025876;28;20042;-60
2021/07/13 14:08:31;;;;;;;5.20;0.90;;;;;;;;;;5024727;28;20139;-59
2021/07/13 14:11:00;;;;;;;1.75;0.90;;;;;;;;;;5011677;28;21298;-59
2021/07/13 14:13:29;;;;;;;1.50;0.73;;;;;;;;;;5014296;28;20041;-58
2021/07/13 14:15:58;;;;;;;3.10;0.85;;;;;;;;;;5018981;28;20069;-59
2021/07/13 14:18:29;;;;;;;3.90;0.85;;;;;;;;;;5020640;28;20053;-59
2021/07/13 14:20:58;;;;;;;2.95;0.82;;;;;;;;;;5023034;28;20096;-58
2021/07/13 14:23:27;;;;;;;1.40;0.82;;;;;;;;;;5024503;28;20045;-58
2021/07/13 14:25:55;;;;;;;1.90;0.80;;;;;;;;;;5025380;28;20042;-59
2021/07/13 14:28:24;;;;;;;3.05;1.33;;;;;;;;;;5023579;28;20429;-59
2021/07/13 14:30:53;;;;;;;2.17;0.90;;;;;;;;;;5023048;28;20115;-59
2021/07/13 14:33:24;;;;;;;3.47;0.93;;;;;;;;;;5023752;28;20115;-59
2021/07/13 14:35:54;;;;;;;2.05;0.80;;;;;;;;;;5022113;28;20635;-59
2021/07/13 14:38:23;;;;;;;5.95;1.20;;;;;;;;;;5023026;28;20554;-59
2021/07/13 14:40:53;;;;;;;5.53;1.00;;;;;;;;;;5023166;28;20449;-59
2021/07/13 14:43:21;;;;;;;3.28;0.77;;;;;;;;;;5024634;28;20049;-60
2021/07/13 14:45:51;;;;;;;5.40;1.90;;;;;;;;;;5024260;28;20068;-58
2021/07/13 14:48:20;;;;;;;8.10;1.02;;;;;;;;;;5025153;28;20038;-59
2021/07/13 14:50:50;;;;;;;2.47;0.90;;;;;;;;;;5021143;28;20057;-59
2021/07/13 14:53:20;;;;;;;1.80;0.93;;;;;;;;;;5020920;28;20596;-59
2021/07/13 14:55:50;;;;;;;4.70;0.95;;;;;;;;;;5024797;28;20107;-59
2021/07/13 14:58:18;;;;;;;3.88;1.05;;;;;;;;;;5023474;28;20547;-59
2021/07/13 15:00:47;;;;;;;6.85;1.60;;;;;;;;;;5022207;28;20115;-59